x

Port Orford - 15 Nm West Of Port Orford, Or (46015) Wave Buoy

10:50pm - Tue 21st Oct 2014 All times are PDT. -7 hours from GMT.

  • Sig Wave height 12.1ft
  • Swell Direction
  • Peak Period 13s
  • Average Period 7s
  • Wind
    31mph, 38mph gusts
  • Sea Temp 59°f
  • Air Temp 58°f
  • Sea Pressure 1011.9mb
  • Port Orford - 15 Nm West Of Port Orford, Or
  • Port Orford - 15 Nm West Of Port Orford, Or

More Historic Weather Station data

Upgrade to MSW Pro to gain access to the past 30 days of data for over 8000 Wavebouys and Weather Stations around the globe.

Join Pro

Comparision Forecast

View Surf forecast
   
Tue 10/21 10:50pm 12ft 13s 7s 31 38 mph 1011.9mb 59f 58f
9:50pm 12ft 13s 7s 34 40 mph 1011.8mb 59f 58f
8:50pm 12.5ft 13s 7s 31 38 mph 1012.1mb 59f 59f
7:50pm 12.5ft 13s 7s 31 38 mph 1012.8mb 59f 59f
6:50pm 12ft 13s 7s 29 36 mph 1013.4mb 59f 59f
5:50pm 11.5ft 13s 7s 27 34 mph 1014.2mb 59f 59f
4:50pm 13ft 11s 7s 27 34 mph 1014.7mb 59f 59f
3:50pm 12ft 13s 7s 27 34 mph 1015.2mb 59f 59f
2:50pm 11.5ft 12s 7s 27 34 mph 1015.6mb 59f 59f
1:50pm 12.5ft 13s 7s 27 34 mph 1015.8mb 59f 59f
12:50pm 12.5ft 14s 7s 27 34 mph 1016.6mb 59f 59f
11:50am 13ft 14s 8s 27 34 mph 1016.7mb 59f 59f
10:50am 11ft 15s 8s 27 31 mph 1016.8mb 59f 59f
9:50am 12ft 14s 9s 20 25 mph 1016.8mb 59f 60f
8:50am 12ft 15s 9s 13 16 mph 1016.6mb 59f 60f
7:50am 11.5ft 14s 8s 11 16 mph 1016.1mb 59f 60f
6:50am 10.5ft 12s 8s 16 20 mph 1015.9mb 59f 59f
5:50am 12ft 15s 8s 18 22 mph 1015.9mb 60f 59f
4:50am 12.5ft 13s 9s 18 22 mph 1015.3mb 60f 59f
3:50am 12.5ft 15s 9s 22 29 mph 1014.8mb 60f 58f
2:50am 14ft 15s 9s 22 27 mph 1014.7mb 60f 58f
1:50am 14ft 14s 9s 20 22 mph 1014.4mb 60f 58f
12:50am 14.5ft 15s 9s 22 29 mph 1013.9mb 60f 58f
Mon 10/20 11:50pm 15.5ft 16s 10s 16 22 mph 1013.5mb 60f 59f
10:50pm 16ft 15s 10s 18 20 mph 1013.2mb 60f 60f
9:50pm 13ft 16s 9s 16 18 mph 1012.7mb 60f 60f
8:50pm 14ft 16s 9s 13 16 mph 1012mb 60f 60f
7:50pm 15ft 16s 10s 11 13 mph 1011.2mb 60f 60f
6:50pm 14ft 16s 9s 16 18 mph 1010.8mb 60f 60f
5:50pm 14ft 15s 9s 18 25 mph 1010.4mb 60f 59f
4:50pm 12ft 15s 9s 18 20 mph 1010.3mb 60f 59f
3:50pm 13ft 16s 9s 20 25 mph 1009.9mb 60f 60f
2:50pm 13ft 17s 9s 22 25 mph 1009.1mb 60f 60f
1:50pm 13ft 17s 9s 20 22 mph 1008.8mb 60f 60f
12:50pm 12ft 15s 8s 22 25 mph 1009.1mb 60f 61f
11:50am 13ft 15s 8s 22 29 mph 1008.6mb 60f 60f
10:50am 13ft 17s 8s 25 29 mph 1008.5mb 60f 60f
9:50am 13ft 17s 9s 16 20 mph 1008.7mb 60f 58f
8:50am 12ft 15s 8s 22 27 mph 1007.9mb 60f 60f
7:50am 12ft 16s 8s 22 27 mph 1007.4mb 60f 59f
6:50am 12ft 14s 8s 20 25 mph 1007mb 59f 60f
5:50am 12ft 16s 8s 20 27 mph 1007.2mb 59f 59f
4:50am 12ft 13s 9s 20 25 mph 1006.9mb 59f 59f
3:50am 10.5ft 12s 8s 20 25 mph 1007.1mb 59f 59f
2:50am 11ft 16s 8s 20 27 mph 1007.4mb 59f 59f
1:50am 11ft 16s 9s 18 20 mph 1007mb 59f 59f
12:50am 11ft 13s 8s 16 20 mph 1007.2mb 59f 59f
Sun 10/19 11:50pm 10ft 17s 8s 16 20 mph 1007.2mb 59f 59f
10:50pm 9ft 17s 7s 16 18 mph 1007.5mb 59f 58f
9:50pm 10.5ft 17s  -  13 16 mph 1007.2mb 59f 58f
8:50pm 10.5ft 17s 7s 16 22 mph 1007mb 59f 59f
7:50pm 11ft 10s 7s 22 27 mph 1006.6mb 59f 61f
6:50pm 11ft 9s 7s 22 27 mph 1006.5mb 59f 62f
5:50pm 11ft 9s 7s 27 31 mph 1006.9mb 59f 62f
4:50pm 11ft 9s 7s 29 34 mph 1006.9mb 59f 63f
3:50pm 11ft 8s 7s 25 31 mph 1007.1mb 59f 62f
2:50pm 10.5ft 9s 7s 29 36 mph 1006.9mb 59f 62f
1:50pm 10ft 9s 6s 27 29 mph 1007.5mb 59f 61f
12:50pm 9.5ft 10s 6s 27 31 mph 1008mb 59f 61f
11:50am 9ft 11s 6s 27 34 mph 1008.2mb 59f 62f
10:50am 9ft 10s 6s 27 34 mph 1007.7mb 59f 61f
9:50am 7.5ft 11s 5s 25 31 mph 1008.3mb 59f 60f
8:50am 8ft 11s 5s 27 31 mph 1007.8mb 59f 60f
7:50am 7.5ft 11s 6s 25 31 mph 1007.3mb 59f 60f
6:50am 7ft 11s 6s 22 29 mph 1007.6mb 59f 60f
5:50am 6ft 11s 5s 22 27 mph 1007.5mb 59f 60f
4:50am 7ft 11s 6s 22 29 mph 1007.9mb 59f 60f
3:50am 6ft 9s 6s 20 22 mph 1008.4mb 59f 60f
2:50am 6.5ft 9s 6s 20 22 mph 1009.2mb 59f 60f
1:50am 7ft 8s 6s 20 25 mph 1009.5mb 59f 60f
12:50am 7ft 10s 6s 20 25 mph 1009.3mb 59f 60f
Sat 10/18 11:50pm 7ft 10s 6s 22 25 mph 1009.2mb 59f 60f
10:50pm 7ft 10s 7s 20 22 mph 1009.7mb 59f 60f
9:50pm 7ft 10s 7s 16 18 mph 1010.2mb 58f 60f
8:50pm 7ft 9s 7s 16 18 mph 1010.7mb 58f 60f
7:50pm 7.5ft 10s 7s 16 18 mph 1011mb 58f 60f
6:50pm 7ft 11s 6s 18 20 mph 1011.2mb 58f 59f
5:50pm 7.5ft 11s 7s 20 22 mph 1011.5mb 58f 59f
4:50pm 7.5ft 10s 7s 18 22 mph 1011.7mb 58f 60f
3:50pm 7ft 11s 7s 18 22 mph 1011.8mb 58f 60f
2:50pm 7.5ft 11s 8s 16 18 mph 1012.3mb 58f 61f
1:50pm 7.5ft 11s 8s 9 13 mph 1012.9mb 58f 61f
12:50pm 8ft 11s 8s 9 11 mph 1013.5mb 58f 61f
11:50am 8ft 11s 8s 7 9 mph 1013.9mb 58f 59f
10:50am 8ft 12s 8s 7 9 mph 1014.2mb 57f 59f
9:50am 9ft 10s 8s 7 9 mph 1014.3mb 57f 59f
8:50am 9ft 12s 8s 9 11 mph 1014mb 57f 59f
7:50am 10ft 10s 8s 11 13 mph 1013.7mb 58f 58f
6:50am 10ft 10s 8s 11 13 mph 1013.6mb 58f 59f